sensor_id;sensor_type;location;lat;lon;timestamp;pressure;altitude;pressure_sealevel;temperature;humidity
9521;BME280;4798;41.574;23.734;2022-12-18T00:00:08;95936.94;;;12.02;100.00
9521;BME280;4798;41.574;23.734;2022-12-18T00:02:36;95951.34;;;12.22;100.00
9521;BME280;4798;41.574;23.734;2022-12-18T00:05:06;95938.28;;;12.15;100.00
9521;BME280;4798;41.574;23.734;2022-12-18T00:07:35;95945.69;;;11.98;100.00
9521;BME280;4798;41.574;23.734;2022-12-18T00:10:04;95959.50;;;12.05;100.00
9521;BME280;4798;41.574;23.734;2022-12-18T00:12:33;95952.59;;;11.89;100.00
9521;BME280;4798;41.574;23.734;2022-12-18T00:15:03;95964.63;;;12.27;100.00
9521;BME280;4798;41.574;23.734;2022-12-18T00:17:32;95943.59;;;12.20;100.00
9521;BME280;4798;41.574;23.734;2022-12-18T00:20:00;95965.16;;;12.39;100.00
9521;BME280;4798;41.574;23.734;2022-12-18T00:22:28;95962.19;;;12.10;100.00
9521;BME280;4798;41.574;23.734;2022-12-18T00:24:57;95945.00;;;11.56;100.00
9521;BME280;4798;41.574;23.734;2022-12-18T00:27:25;95884.88;;;11.24;100.00
9521;BME280;4798;41.574;23.734;2022-12-18T00:29:53;95974.38;;;11.91;100.00
9521;BME280;4798;41.574;23.734;2022-12-18T00:32:23;95980.97;;;11.83;100.00
9521;BME280;4798;41.574;23.734;2022-12-18T00:34:51;96001.41;;;11.78;100.00
9521;BME280;4798;41.574;23.734;2022-12-18T00:37:19;95998.81;;;11.93;100.00
9521;BME280;4798;41.574;23.734;2022-12-18T00:39:48;96002.47;;;11.82;100.00
9521;BME280;4798;41.574;23.734;2022-12-18T00:42:17;95979.19;;;12.04;100.00
9521;BME280;4798;41.574;23.734;2022-12-18T00:45:02;95982.13;;;12.23;100.00
9521;BME280;4798;41.574;23.734;2022-12-18T00:47:39;95978.16;;;12.30;100.00
9521;BME280;4798;41.574;23.734;2022-12-18T00:50:09;95982.69;;;12.30;100.00
9521;BME280;4798;41.574;23.734;2022-12-18T00:52:39;95990.94;;;12.33;100.00
9521;BME280;4798;41.574;23.734;2022-12-18T00:55:08;95973.34;;;12.07;100.00
9521;BME280;4798;41.574;23.734;2022-12-18T00:57:36;95988.56;;;12.32;100.00
9521;BME280;4798;41.574;23.734;2022-12-18T01:00:08;95982.69;;;12.40;100.00
9521;BME280;4798;41.574;23.734;2022-12-18T01:02:36;95980.81;;;12.25;100.00
9521;BME280;4798;41.574;23.734;2022-12-18T01:05:07;95978.66;;;12.12;100.00
9521;BME280;4798;41.574;23.734;2022-12-18T01:07:36;95979.50;;;12.28;100.00
9521;BME280;4798;41.574;23.734;2022-12-18T01:10:05;95971.28;;;12.34;100.00
9521;BME280;4798;41.574;23.734;2022-12-18T01:12:34;95963.56;;;12.33;100.00
9521;BME280;4798;41.574;23.734;2022-12-18T01:15:04;95968.06;;;12.37;100.00
9521;BME280;4798;41.574;23.734;2022-12-18T01:17:33;95975.16;;;11.86;100.00
9521;BME280;4798;41.574;23.734;2022-12-18T01:20:02;95983.72;;;11.52;100.00
9521;BME280;4798;41.574;23.734;2022-12-18T01:22:32;95977.94;;;11.60;100.00
9521;BME280;4798;41.574;23.734;2022-12-18T01:25:00;95988.19;;;11.93;100.00
9521;BME280;4798;41.574;23.734;2022-12-18T01:27:29;95924.59;;;11.61;100.00
9521;BME280;4798;41.574;23.734;2022-12-18T01:29:57;95983.88;;;11.77;100.00
9521;BME280;4798;41.574;23.734;2022-12-18T01:32:25;95981.56;;;12.00;100.00
9521;BME280;4798;41.574;23.734;2022-12-18T01:34:54;95957.38;;;12.07;100.00
9521;BME280;4798;41.574;23.734;2022-12-18T01:37:22;95973.59;;;12.05;100.00
9521;BME280;4798;41.574;23.734;2022-12-18T01:39:53;95969.88;;;12.01;100.00
9521;BME280;4798;41.574;23.734;2022-12-18T01:42:22;95897.53;;;11.74;100.00
9521;BME280;4798;41.574;23.734;2022-12-18T01:45:01;95970.19;;;12.30;100.00
9521;BME280;4798;41.574;23.734;2022-12-18T01:47:33;95950.25;;;12.28;100.00
9521;BME280;4798;41.574;23.734;2022-12-18T01:50:07;95919.44;;;12.12;100.00
9521;BME280;4798;41.574;23.734;2022-12-18T01:52:36;95967.03;;;12.38;100.00
9521;BME280;4798;41.574;23.734;2022-12-18T01:55:08;95971.00;;;12.41;100.00
9521;BME280;4798;41.574;23.734;2022-12-18T01:57:38;95967.53;;;12.30;100.00
9521;BME280;4798;41.574;23.734;2022-12-18T02:00:09;95974.16;;;12.18;100.00
9521;BME280;4798;41.574;23.734;2022-12-18T02:02:39;95985.00;;;11.91;100.00
9521;BME280;4798;41.574;23.734;2022-12-18T02:05:09;95989.41;;;11.23;100.00
9521;BME280;4798;41.574;23.734;2022-12-18T02:07:43;96005.25;;;11.13;100.00
9521;BME280;4798;41.574;23.734;2022-12-18T02:10:20;95807.09;;;10.15;100.00
9521;BME280;4798;41.574;23.734;2022-12-18T02:12:57;95989.19;;;11.30;100.00
9521;BME280;4798;41.574;23.734;2022-12-18T02:15:32;95943.53;;;11.23;100.00
9521;BME280;4798;41.574;23.734;2022-12-18T02:18:07;95986.53;;;11.30;100.00
9521;BME280;4798;41.574;23.734;2022-12-18T02:20:42;95956.53;;;11.24;100.00
9521;BME280;4798;41.574;23.734;2022-12-18T02:23:22;95989.72;;;11.74;100.00
9521;BME280;4798;41.574;23.734;2022-12-18T02:26:07;95993.31;;;11.53;100.00
9521;BME280;4798;41.574;23.734;2022-12-18T02:28:42;95990.72;;;11.68;100.00
9521;BME280;4798;41.574;23.734;2022-12-18T02:31:14;96004.25;;;11.66;100.00
9521;BME280;4798;41.574;23.734;2022-12-18T02:33:45;96012.38;;;11.91;100.00
9521;BME280;4798;41.574;23.734;2022-12-18T02:36:16;95972.19;;;11.78;100.00
9521;BME280;4798;41.574;23.734;2022-12-18T02:38:46;95952.44;;;11.59;100.00
9521;BME280;4798;41.574;23.734;2022-12-18T02:41:17;96005.91;;;11.77;100.00
9521;BME280;4798;41.574;23.734;2022-12-18T02:43:47;96013.88;;;11.77;100.00
9521;BME280;4798;41.574;23.734;2022-12-18T02:46:36;95942.78;;;11.32;100.00
9521;BME280;4798;41.574;23.734;2022-12-18T02:49:12;96004.09;;;11.83;100.00
9521;BME280;4798;41.574;23.734;2022-12-18T02:51:50;95937.53;;;11.47;100.00
9521;BME280;4798;41.574;23.734;2022-12-18T02:57:18;95906.47;;;10.49;100.00
9521;BME280;4798;41.574;23.734;2022-12-18T02:59:54;96026.69;;;11.43;100.00
9521;BME280;4798;41.574;23.734;2022-12-18T03:02:27;96020.13;;;11.14;100.00
9521;BME280;4798;41.574;23.734;2022-12-18T03:05:03;96041.97;;;11.26;100.00
9521;BME280;4798;41.574;23.734;2022-12-18T03:07:36;96031.69;;;11.35;100.00
9521;BME280;4798;41.574;23.734;2022-12-18T03:10:07;96038.81;;;11.29;100.00
9521;BME280;4798;41.574;23.734;2022-12-18T03:12:42;95985.00;;;10.97;100.00
9521;BME280;4798;41.574;23.734;2022-12-18T03:15:14;95991.00;;;11.19;100.00
9521;BME280;4798;41.574;23.734;2022-12-18T03:17:48;96024.06;;;11.48;100.00
9521;BME280;4798;41.574;23.734;2022-12-18T03:20:20;96025.66;;;11.49;100.00
9521;BME280;4798;41.574;23.734;2022-12-18T03:22:53;96030.22;;;11.12;100.00
9521;BME280;4798;41.574;23.734;2022-12-18T03:25:25;96031.16;;;10.96;100.00
9521;BME280;4798;41.574;23.734;2022-12-18T03:27:58;96034.75;;;10.80;100.00
9521;BME280;4798;41.574;23.734;2022-12-18T03:30:29;96052.72;;;10.78;100.00
9521;BME280;4798;41.574;23.734;2022-12-18T03:33:02;96038.72;;;10.51;100.00
9521;BME280;4798;41.574;23.734;2022-12-18T03:35:36;96048.81;;;10.54;100.00
9521;BME280;4798;41.574;23.734;2022-12-18T03:38:06;96049.47;;;10.39;100.00
9521;BME280;4798;41.574;23.734;2022-12-18T03:40:42;96002.47;;;10.08;100.00
9521;BME280;4798;41.574;23.734;2022-12-18T03:43:19;96040.63;;;10.29;100.00
9521;BME280;4798;41.574;23.734;2022-12-18T03:45:53;96045.59;;;10.25;100.00
9521;BME280;4798;41.574;23.734;2022-12-18T03:48:29;96054.31;;;10.20;100.00
9521;BME280;4798;41.574;23.734;2022-12-18T03:50:59;96067.91;;;10.29;100.00
9521;BME280;4798;41.574;23.734;2022-12-18T03:53:36;96070.78;;;10.28;100.00
9521;BME280;4798;41.574;23.734;2022-12-18T03:56:09;96073.38;;;10.23;100.00
9521;BME280;4798;41.574;23.734;2022-12-18T03:58:41;96070.00;;;10.27;100.00
9521;BME280;4798;41.574;23.734;2022-12-18T04:01:13;96076.03;;;10.23;100.00
9521;BME280;4798;41.574;23.734;2022-12-18T04:03:44;96074.69;;;10.20;100.00
9521;BME280;4798;41.574;23.734;2022-12-18T04:06:15;96074.69;;;10.42;100.00
9521;BME280;4798;41.574;23.734;2022-12-18T04:08:44;96080.25;;;10.45;100.00
9521;BME280;4798;41.574;23.734;2022-12-18T04:11:13;96074.13;;;10.40;100.00
9521;BME280;4798;41.574;23.734;2022-12-18T04:13:44;96073.00;;;10.36;100.00
9521;BME280;4798;41.574;23.734;2022-12-18T04:16:12;96072.63;;;10.27;100.00
9521;BME280;4798;41.574;23.734;2022-12-18T04:18:40;96073.94;;;10.25;100.00
9521;BME280;4798;41.574;23.734;2022-12-18T04:21:10;96067.81;;;10.19;100.00
9521;BME280;4798;41.574;23.734;2022-12-18T04:23:38;96054.03;;;10.00;100.00
9521;BME280;4798;41.574;23.734;2022-12-18T04:26:07;95920.53;;;9.26;100.00
9521;BME280;4798;41.574;23.734;2022-12-18T04:28:35;96079.47;;;10.45;100.00
9521;BME280;4798;41.574;23.734;2022-12-18T04:31:05;96077.72;;;10.29;100.00
9521;BME280;4798;41.574;23.734;2022-12-18T04:33:33;96084.03;;;10.06;100.00
9521;BME280;4798;41.574;23.734;2022-12-18T04:36:03;96086.84;;;9.99;100.00
9521;BME280;4798;41.574;23.734;2022-12-18T04:38:31;96080.84;;;10.04;100.00
9521;BME280;4798;41.574;23.734;2022-12-18T04:40:59;96088.47;;;10.00;100.00
9521;BME280;4798;41.574;23.734;2022-12-18T04:43:28;96082.38;;;10.00;100.00
9521;BME280;4798;41.574;23.734;2022-12-18T04:46:01;96069.50;;;10.08;100.00
9521;BME280;4798;41.574;23.734;2022-12-18T04:48:31;96086.75;;;10.11;100.00
9521;BME280;4798;41.574;23.734;2022-12-18T04:51:00;96076.66;;;9.86;100.00
9521;BME280;4798;41.574;23.734;2022-12-18T04:53:30;96040.84;;;9.62;100.00
9521;BME280;4798;41.574;23.734;2022-12-18T04:56:04;96083.47;;;9.82;100.00
9521;BME280;4798;41.574;23.734;2022-12-18T04:58:33;96099.47;;;9.92;100.00
9521;BME280;4798;41.574;23.734;2022-12-18T05:01:03;96108.97;;;9.88;100.00
9521;BME280;4798;41.574;23.734;2022-12-18T05:03:33;96118.16;;;9.81;100.00
9521;BME280;4798;41.574;23.734;2022-12-18T05:06:02;96100.69;;;9.63;100.00
9521;BME280;4798;41.574;23.734;2022-12-18T05:08:31;96109.81;;;9.72;100.00
9521;BME280;4798;41.574;23.734;2022-12-18T05:10:59;96029.50;;;9.07;100.00
9521;BME280;4798;41.574;23.734;2022-12-18T05:13:28;95986.75;;;8.76;100.00
9521;BME280;4798;41.574;23.734;2022-12-18T05:15:57;96119.59;;;9.72;100.00
9521;BME280;4798;41.574;23.734;2022-12-18T05:18:25;96134.25;;;9.79;100.00
9521;BME280;4798;41.574;23.734;2022-12-18T05:20:55;96131.72;;;9.68;100.00
9521;BME280;4798;41.574;23.734;2022-12-18T05:23:24;96133.16;;;9.75;100.00
9521;BME280;4798;41.574;23.734;2022-12-18T05:25:53;96138.78;;;9.79;100.00
9521;BME280;4798;41.574;23.734;2022-12-18T05:28:24;96140.06;;;9.76;100.00
9521;BME280;4798;41.574;23.734;2022-12-18T05:30:54;96139.50;;;10.12;100.00
9521;BME280;4798;41.574;23.734;2022-12-18T05:33:24;96140.31;;;10.13;100.00
9521;BME280;4798;41.574;23.734;2022-12-18T05:35:55;96147.44;;;10.12;100.00
9521;BME280;4798;41.574;23.734;2022-12-18T05:38:25;96133.72;;;10.37;100.00
9521;BME280;4798;41.574;23.734;2022-12-18T05:40:54;96145.53;;;10.30;100.00
9521;BME280;4798;41.574;23.734;2022-12-18T05:43:23;96147.63;;;10.49;100.00
9521;BME280;4798;41.574;23.734;2022-12-18T05:45:52;96152.81;;;10.39;100.00
9521;BME280;4798;41.574;23.734;2022-12-18T05:48:21;96163.84;;;10.31;100.00
9521;BME280;4798;41.574;23.734;2022-12-18T05:50:50;96156.94;;;10.52;100.00
9521;BME280;4798;41.574;23.734;2022-12-18T05:53:20;96152.91;;;10.71;100.00
9521;BME280;4798;41.574;23.734;2022-12-18T05:55:48;95993.94;;;9.79;100.00
9521;BME280;4798;41.574;23.734;2022-12-18T05:58:17;96159.88;;;10.77;100.00
9521;BME280;4798;41.574;23.734;2022-12-18T06:00:54;96162.75;;;10.75;100.00
9521;BME280;4798;41.574;23.734;2022-12-18T06:03:23;96161.28;;;10.84;100.00
9521;BME280;4798;41.574;23.734;2022-12-18T06:05:59;96143.38;;;10.70;100.00
9521;BME280;4798;41.574;23.734;2022-12-18T06:08:29;96156.78;;;10.85;100.00
9521;BME280;4798;41.574;23.734;2022-12-18T06:10:57;96174.75;;;10.83;100.00
9521;BME280;4798;41.574;23.734;2022-12-18T06:13:25;96178.38;;;10.72;100.00
9521;BME280;4798;41.574;23.734;2022-12-18T06:15:54;96146.59;;;9.90;100.00
9521;BME280;4798;41.574;23.734;2022-12-18T06:18:22;96192.53;;;10.17;100.00
9521;BME280;4798;41.574;23.734;2022-12-18T06:20:55;96191.41;;;10.52;100.00
9521;BME280;4798;41.574;23.734;2022-12-18T06:23:24;96186.31;;;10.50;100.00
9521;BME280;4798;41.574;23.734;2022-12-18T06:25:53;96194.06;;;10.52;100.00
9521;BME280;4798;41.574;23.734;2022-12-18T06:28:22;96185.72;;;10.43;100.00
9521;BME280;4798;41.574;23.734;2022-12-18T06:30:51;96196.72;;;10.78;100.00
9521;BME280;4798;41.574;23.734;2022-12-18T06:33:19;96203.91;;;11.05;100.00
9521;BME280;4798;41.574;23.734;2022-12-18T06:35:48;96204.91;;;11.25;100.00
9521;BME280;4798;41.574;23.734;2022-12-18T06:38:16;96155.81;;;10.96;100.00
9521;BME280;4798;41.574;23.734;2022-12-18T06:40:44;96210.41;;;11.19;100.00
9521;BME280;4798;41.574;23.734;2022-12-18T06:43:14;96212.06;;;10.98;100.00
9521;BME280;4798;41.574;23.734;2022-12-18T06:45:42;96171.34;;;10.61;100.00
9521;BME280;4798;41.574;23.734;2022-12-18T06:48:10;96227.00;;;11.04;100.00
9521;BME280;4798;41.574;23.734;2022-12-18T06:50:41;96229.34;;;11.27;100.00
9521;BME280;4798;41.574;23.734;2022-12-18T06:53:10;96224.50;;;11.51;100.00
9521;BME280;4798;41.574;23.734;2022-12-18T06:55:38;96219.09;;;11.68;100.00
9521;BME280;4798;41.574;23.734;2022-12-18T06:58:07;96233.50;;;11.77;100.00
9521;BME280;4798;41.574;23.734;2022-12-18T07:00:38;96189.75;;;11.53;100.00
9521;BME280;4798;41.574;23.734;2022-12-18T07:03:07;96237.63;;;11.94;100.00
9521;BME280;4798;41.574;23.734;2022-12-18T07:05:39;96245.72;;;12.09;100.00
9521;BME280;4798;41.574;23.734;2022-12-18T07:08:07;96242.78;;;12.06;100.00
9521;BME280;4798;41.574;23.734;2022-12-18T07:10:41;96236.97;;;12.09;100.00
9521;BME280;4798;41.574;23.734;2022-12-18T07:13:14;96243.16;;;12.25;100.00
9521;BME280;4798;41.574;23.734;2022-12-18T07:15:44;96242.97;;;12.36;100.00
9521;BME280;4798;41.574;23.734;2022-12-18T07:18:12;96232.34;;;12.36;100.00
9521;BME280;4798;41.574;23.734;2022-12-18T07:20:41;96234.69;;;12.33;100.00
9521;BME280;4798;41.574;23.734;2022-12-18T07:23:09;96231.03;;;12.44;100.00
9521;BME280;4798;41.574;23.734;2022-12-18T07:25:37;96188.66;;;12.27;100.00
9521;BME280;4798;41.574;23.734;2022-12-18T07:28:06;96221.50;;;12.53;100.00
9521;BME280;4798;41.574;23.734;2022-12-18T07:30:44;96240.75;;;12.80;100.00
9521;BME280;4798;41.574;23.734;2022-12-18T07:33:13;96239.41;;;12.77;100.00
9521;BME280;4798;41.574;23.734;2022-12-18T07:35:41;96238.69;;;12.92;100.00
9521;BME280;4798;41.574;23.734;2022-12-18T07:38:09;96245.69;;;13.08;100.00
9521;BME280;4798;41.574;23.734;2022-12-18T07:40:38;96234.28;;;13.18;100.00
9521;BME280;4798;41.574;23.734;2022-12-18T07:43:06;96246.84;;;13.38;100.00
9521;BME280;4798;41.574;23.734;2022-12-18T07:45:34;96251.69;;;13.71;100.00
9521;BME280;4798;41.574;23.734;2022-12-18T07:48:04;96239.69;;;13.98;100.00
9521;BME280;4798;41.574;23.734;2022-12-18T07:50:33;96245.53;;;14.06;100.00
9521;BME280;4798;41.574;23.734;2022-12-18T07:53:01;96242.06;;;14.15;100.00
9521;BME280;4798;41.574;23.734;2022-12-18T07:55:31;96241.78;;;14.37;100.00
9521;BME280;4798;41.574;23.734;2022-12-18T07:58:20;96238.56;;;14.45;100.00
9521;BME280;4798;41.574;23.734;2022-12-18T08:00:48;96243.09;;;14.49;100.00
9521;BME280;4798;41.574;23.734;2022-12-18T08:03:18;96250.00;;;14.50;100.00
9521;BME280;4798;41.574;23.734;2022-12-18T08:05:48;96250.50;;;14.62;100.00
9521;BME280;4798;41.574;23.734;2022-12-18T08:08:16;96251.50;;;14.87;100.00
9521;BME280;4798;41.574;23.734;2022-12-18T08:10:44;96183.81;;;14.57;100.00
9521;BME280;4798;41.574;23.734;2022-12-18T08:13:14;96239.66;;;15.03;100.00
9521;BME280;4798;41.574;23.734;2022-12-18T08:15:42;96238.88;;;15.07;100.00
9521;BME280;4798;41.574;23.734;2022-12-18T08:18:10;96230.09;;;14.97;100.00
9521;BME280;4798;41.574;23.734;2022-12-18T08:20:41;96237.66;;;15.28;100.00
9521;BME280;4798;41.574;23.734;2022-12-18T08:23:10;96234.13;;;15.82;100.00
9521;BME280;4798;41.574;23.734;2022-12-18T08:25:38;96239.78;;;16.09;100.00
9521;BME280;4798;41.574;23.734;2022-12-18T08:28:06;96236.75;;;16.21;100.00
9521;BME280;4798;41.574;23.734;2022-12-18T08:30:35;96239.56;;;16.06;100.00
9521;BME280;4798;41.574;23.734;2022-12-18T08:33:04;96239.16;;;16.17;98.79
9521;BME280;4798;41.574;23.734;2022-12-18T08:35:35;96245.75;;;16.30;100.00
9521;BME280;4798;41.574;23.734;2022-12-18T08:38:12;96250.22;;;15.77;100.00
9521;BME280;4798;41.574;23.734;2022-12-18T08:40:41;96208.03;;;16.55;98.80
9521;BME280;4798;41.574;23.734;2022-12-18T08:43:09;96242.50;;;17.46;97.93
9521;BME280;4798;41.574;23.734;2022-12-18T08:45:55;96236.31;;;17.08;91.69
9521;BME280;4798;41.574;23.734;2022-12-18T08:48:24;96229.31;;;16.41;90.60
9521;BME280;4798;41.574;23.734;2022-12-18T08:50:55;96242.97;;;16.69;94.49
9521;BME280;4798;41.574;23.734;2022-12-18T08:53:25;96238.88;;;15.90;93.96
9521;BME280;4798;41.574;23.734;2022-12-18T08:56:01;96247.56;;;15.72;100.00
9521;BME280;4798;41.574;23.734;2022-12-18T08:58:30;96253.16;;;16.38;100.00
9521;BME280;4798;41.574;23.734;2022-12-18T09:01:00;96198.53;;;16.15;95.67
9521;BME280;4798;41.574;23.734;2022-12-18T09:03:29;96247.59;;;16.06;96.86
9521;BME280;4798;41.574;23.734;2022-12-18T09:05:57;96249.63;;;15.46;100.00
9521;BME280;4798;41.574;23.734;2022-12-18T09:08:27;96250.91;;;15.54;100.00
9521;BME280;4798;41.574;23.734;2022-12-18T09:10:56;96241.94;;;15.78;99.83
9521;BME280;4798;41.574;23.734;2022-12-18T09:13:24;96222.09;;;15.51;100.00
9521;BME280;4798;41.574;23.734;2022-12-18T09:15:54;96230.19;;;15.74;100.00
9521;BME280;4798;41.574;23.734;2022-12-18T09:18:23;96238.88;;;16.47;100.00
9521;BME280;4798;41.574;23.734;2022-12-18T09:20:52;96242.09;;;16.97;93.35
9521;BME280;4798;41.574;23.734;2022-12-18T09:23:21;96238.91;;;16.95;94.64
9521;BME280;4798;41.574;23.734;2022-12-18T09:25:50;96239.50;;;16.92;94.42
9521;BME280;4798;41.574;23.734;2022-12-18T09:28:19;96250.75;;;16.89;92.52
9521;BME280;4798;41.574;23.734;2022-12-18T09:30:48;96239.91;;;16.51;92.08
9521;BME280;4798;41.574;23.734;2022-12-18T09:33:17;96233.81;;;16.17;95.09
9521;BME280;4798;41.574;23.734;2022-12-18T09:35:45;96228.00;;;16.10;93.07
9521;BME280;4798;41.574;23.734;2022-12-18T09:38:16;96248.81;;;15.84;95.69
9521;BME280;4798;41.574;23.734;2022-12-18T09:40:47;96246.91;;;15.90;96.29
9521;BME280;4798;41.574;23.734;2022-12-18T09:43:20;96247.81;;;16.67;98.00
9521;BME280;4798;41.574;23.734;2022-12-18T09:45:52;96248.97;;;16.27;94.40
9521;BME280;4798;41.574;23.734;2022-12-18T09:48:25;96237.56;;;15.49;97.23
9521;BME280;4798;41.574;23.734;2022-12-18T09:50:56;96243.69;;;15.54;99.51
9521;BME280;4798;41.574;23.734;2022-12-18T09:53:29;96245.22;;;15.65;98.55
9521;BME280;4798;41.574;23.734;2022-12-18T09:56:00;96246.72;;;15.76;96.40
9521;BME280;4798;41.574;23.734;2022-12-18T09:58:33;96244.69;;;15.97;95.78
9521;BME280;4798;41.574;23.734;2022-12-18T10:01:09;96237.25;;;16.23;94.72
9521;BME280;4798;41.574;23.734;2022-12-18T10:03:38;96248.00;;;15.84;96.55
9521;BME280;4798;41.574;23.734;2022-12-18T10:06:11;96234.94;;;15.82;96.63
9521;BME280;4798;41.574;23.734;2022-12-18T10:08:46;96238.19;;;16.08;93.22
9521;BME280;4798;41.574;23.734;2022-12-18T10:11:30;96236.38;;;16.04;93.72
9521;BME280;4798;41.574;23.734;2022-12-18T10:14:07;96235.06;;;15.67;95.38
9521;BME280;4798;41.574;23.734;2022-12-18T10:16:42;96234.06;;;15.58;97.39
9521;BME280;4798;41.574;23.734;2022-12-18T10:19:23;96235.84;;;15.68;94.78
9521;BME280;4798;41.574;23.734;2022-12-18T10:22:01;96225.13;;;15.73;96.88
9521;BME280;4798;41.574;23.734;2022-12-18T10:24:38;96225.66;;;15.26;97.08
9521;BME280;4798;41.574;23.734;2022-12-18T10:27:13;96224.06;;;15.30;99.93
9521;BME280;4798;41.574;23.734;2022-12-18T10:29:44;96228.69;;;15.63;100.00
9521;BME280;4798;41.574;23.734;2022-12-18T10:32:15;96224.50;;;15.86;97.87
9521;BME280;4798;41.574;23.734;2022-12-18T10:34:46;96217.81;;;15.50;95.90
9521;BME280;4798;41.574;23.734;2022-12-18T10:37:17;96217.75;;;15.94;97.99
9521;BME280;4798;41.574;23.734;2022-12-18T10:39:46;96216.81;;;15.74;94.27
9521;BME280;4798;41.574;23.734;2022-12-18T10:42:19;96223.28;;;15.68;94.91
9521;BME280;4798;41.574;23.734;2022-12-18T10:45:00;96213.34;;;15.74;98.47
9521;BME280;4798;41.574;23.734;2022-12-18T10:47:29;96216.31;;;15.72;97.75
9521;BME280;4798;41.574;23.734;2022-12-18T10:49:57;96224.53;;;15.81;96.76
9521;BME280;4798;41.574;23.734;2022-12-18T10:52:27;96119.50;;;15.08;96.61
9521;BME280;4798;41.574;23.734;2022-12-18T10:54:58;96221.69;;;15.67;97.45
9521;BME280;4798;41.574;23.734;2022-12-18T10:57:34;96220.50;;;15.83;94.33
9521;BME280;4798;41.574;23.734;2022-12-18T11:00:23;96219.75;;;15.34;97.12
9521;BME280;4798;41.574;23.734;2022-12-18T11:02:52;96209.78;;;15.45;96.41
9521;BME280;4798;41.574;23.734;2022-12-18T11:05:27;96215.13;;;15.50;99.35
9521;BME280;4798;41.574;23.734;2022-12-18T11:07:56;96205.31;;;15.74;96.77
9521;BME280;4798;41.574;23.734;2022-12-18T11:10:28;96214.88;;;15.46;99.34
9521;BME280;4798;41.574;23.734;2022-12-18T11:13:12;96217.00;;;15.44;100.00
9521;BME280;4798;41.574;23.734;2022-12-18T11:15:42;96205.88;;;15.32;100.00
9521;BME280;4798;41.574;23.734;2022-12-18T11:18:17;96140.19;;;14.87;98.93
9521;BME280;4798;41.574;23.734;2022-12-18T11:20:52;96143.25;;;15.09;99.57
9521;BME280;4798;41.574;23.734;2022-12-18T11:23:25;96200.25;;;15.72;97.33
9521;BME280;4798;41.574;23.734;2022-12-18T11:25:56;96209.59;;;15.75;97.20
9521;BME280;4798;41.574;23.734;2022-12-18T11:28:34;96197.97;;;16.18;94.05
9521;BME280;4798;41.574;23.734;2022-12-18T11:31:20;96193.09;;;15.97;95.23
9521;BME280;4798;41.574;23.734;2022-12-18T11:34:02;96196.00;;;16.00;94.52
9521;BME280;4798;41.574;23.734;2022-12-18T11:36:52;96199.28;;;15.92;95.15
9521;BME280;4798;41.574;23.734;2022-12-18T11:39:27;96126.34;;;15.86;92.65
9521;BME280;4798;41.574;23.734;2022-12-18T11:42:03;96196.06;;;16.24;93.41
9521;BME280;4798;41.574;23.734;2022-12-18T11:44:45;96196.78;;;16.29;91.82
9521;BME280;4798;41.574;23.734;2022-12-18T11:47:22;96126.97;;;15.50;94.02
9521;BME280;4798;41.574;23.734;2022-12-18T11:50:00;96195.13;;;16.10;93.18
9521;BME280;4798;41.574;23.734;2022-12-18T11:52:33;96186.06;;;15.77;93.38
9521;BME280;4798;41.574;23.734;2022-12-18T11:55:10;96194.59;;;15.79;95.62
9521;BME280;4798;41.574;23.734;2022-12-18T11:57:46;96182.78;;;15.85;97.50
9521;BME280;4798;41.574;23.734;2022-12-18T12:00:19;96187.66;;;16.07;96.28
9521;BME280;4798;41.574;23.734;2022-12-18T12:03:35;96176.06;;;15.87;93.50
9521;BME280;4798;41.574;23.734;2022-12-18T12:06:13;96172.59;;;15.87;94.74
9521;BME280;4798;41.574;23.734;2022-12-18T12:09:01;96187.16;;;15.76;96.17
9521;BME280;4798;41.574;23.734;2022-12-18T12:11:36;96185.47;;;15.85;97.12
9521;BME280;4798;41.574;23.734;2022-12-18T12:14:26;96185.03;;;15.73;96.40
9521;BME280;4798;41.574;23.734;2022-12-18T12:17:03;96185.41;;;15.90;95.57
9521;BME280;4798;41.574;23.734;2022-12-18T12:19:45;96191.72;;;15.99;93.65
9521;BME280;4798;41.574;23.734;2022-12-18T12:22:24;96178.34;;;15.75;94.47
9521;BME280;4798;41.574;23.734;2022-12-18T12:25:05;96190.69;;;15.66;96.35
9521;BME280;4798;41.574;23.734;2022-12-18T12:27:43;96186.69;;;15.64;95.58
9521;BME280;4798;41.574;23.734;2022-12-18T12:30:19;96192.88;;;15.93;96.02
9521;BME280;4798;41.574;23.734;2022-12-18T12:33:04;96185.28;;;16.05;94.38
9521;BME280;4798;41.574;23.734;2022-12-18T12:35:44;96183.25;;;15.92;95.16
9521;BME280;4798;41.574;23.734;2022-12-18T12:38:19;96176.97;;;15.78;94.55
9521;BME280;4798;41.574;23.734;2022-12-18T12:40:54;96177.34;;;15.61;95.76
9521;BME280;4798;41.574;23.734;2022-12-18T12:43:35;96188.13;;;15.51;98.14
9521;BME280;4798;41.574;23.734;2022-12-18T12:46:17;96125.94;;;15.41;95.96
9521;BME280;4798;41.574;23.734;2022-12-18T12:48:48;96184.38;;;15.52;95.88
9521;BME280;4798;41.574;23.734;2022-12-18T12:51:21;96146.97;;;15.52;94.59
9521;BME280;4798;41.574;23.734;2022-12-18T12:53:52;96193.28;;;15.38;96.50
9521;BME280;4798;41.574;23.734;2022-12-18T12:56:22;96199.72;;;15.32;97.12
9521;BME280;4798;41.574;23.734;2022-12-18T12:58:58;96189.66;;;15.18;98.94
9521;BME280;4798;41.574;23.734;2022-12-18T13:01:36;96196.03;;;15.27;99.23
9521;BME280;4798;41.574;23.734;2022-12-18T13:04:17;96194.16;;;15.67;98.15
9521;BME280;4798;41.574;23.734;2022-12-18T13:06:58;96198.44;;;15.68;96.91
9521;BME280;4798;41.574;23.734;2022-12-18T13:09:30;96209.13;;;15.68;96.49
9521;BME280;4798;41.574;23.734;2022-12-18T13:12:03;96203.16;;;15.37;96.65
9521;BME280;4798;41.574;23.734;2022-12-18T13:14:50;96207.91;;;15.84;94.58
9521;BME280;4798;41.574;23.734;2022-12-18T13:17:27;96216.06;;;15.69;95.94
9521;BME280;4798;41.574;23.734;2022-12-18T13:20:10;96214.81;;;15.12;97.32
9521;BME280;4798;41.574;23.734;2022-12-18T13:22:44;96203.19;;;14.83;99.83
9521;BME280;4798;41.574;23.734;2022-12-18T13:25:35;96191.59;;;15.08;100.00
9521;BME280;4798;41.574;23.734;2022-12-18T13:28:06;96210.91;;;15.39;97.00
9521;BME280;4798;41.574;23.734;2022-12-18T13:30:50;96197.34;;;14.81;100.00
9521;BME280;4798;41.574;23.734;2022-12-18T13:33:40;96213.34;;;14.81;100.00